sensor_id;sensor_type;location;lat;lon;timestamp;temperature;humidity
25250;DHT22;13201;51.148;13.738;2023-03-26T00:01:07;8.70;99.90
25250;DHT22;13201;51.148;13.738;2023-03-26T00:03:35;8.70;99.90
25250;DHT22;13201;51.148;13.738;2023-03-26T00:06:13;8.70;99.90
25250;DHT22;13201;51.148;13.738;2023-03-26T00:08:41;8.60;99.90
25250;DHT22;13201;51.148;13.738;2023-03-26T00:11:09;8.60;99.90
25250;DHT22;13201;51.148;13.738;2023-03-26T00:13:35;8.60;99.90
25250;DHT22;13201;51.148;13.738;2023-03-26T00:16:02;8.70;99.90
25250;DHT22;13201;51.148;13.738;2023-03-26T00:18:28;8.70;99.90
25250;DHT22;13201;51.148;13.738;2023-03-26T00:21:01;8.80;99.90
25250;DHT22;13201;51.148;13.738;2023-03-26T00:23:28;8.80;99.90
25250;DHT22;13201;51.148;13.738;2023-03-26T00:25:55;8.80;99.90
25250;DHT22;13201;51.148;13.738;2023-03-26T00:28:21;8.80;99.90
25250;DHT22;13201;51.148;13.738;2023-03-26T00:30:48;8.90;99.90
25250;DHT22;13201;51.148;13.738;2023-03-26T00:33:14;8.90;99.90
25250;DHT22;13201;51.148;13.738;2023-03-26T00:35:43;8.90;99.90
25250;DHT22;13201;51.148;13.738;2023-03-26T00:38:14;8.90;99.90
25250;DHT22;13201;51.148;13.738;2023-03-26T00:40:40;9.00;99.90
25250;DHT22;13201;51.148;13.738;2023-03-26T00:43:13;8.90;99.90
25250;DHT22;13201;51.148;13.738;2023-03-26T00:45:52;9.00;99.90
25250;DHT22;13201;51.148;13.738;2023-03-26T00:48:19;9.00;99.90
25250;DHT22;13201;51.148;13.738;2023-03-26T00:50:46;9.00;99.90
25250;DHT22;13201;51.148;13.738;2023-03-26T00:53:13;9.00;99.90
25250;DHT22;13201;51.148;13.738;2023-03-26T00:55:40;9.00;99.90
25250;DHT22;13201;51.148;13.738;2023-03-26T00:58:07;9.10;99.90
25250;DHT22;13201;51.148;13.738;2023-03-26T01:00:51;9.10;99.90
25250;DHT22;13201;51.148;13.738;2023-03-26T01:03:18;9.00;99.90
25250;DHT22;13201;51.148;13.738;2023-03-26T01:31:00;8.10;99.90
25250;DHT22;13201;51.148;13.738;2023-03-26T01:33:41;7.90;99.90
25250;DHT22;13201;51.148;13.738;2023-03-26T01:36:26;7.90;99.90
25250;DHT22;13201;51.148;13.738;2023-03-26T01:39:00;8.00;99.90
25250;DHT22;13201;51.148;13.738;2023-03-26T01:46:58;8.10;99.90
25250;DHT22;13201;51.148;13.738;2023-03-26T01:49:27;8.20;99.90
25250;DHT22;13201;51.148;13.738;2023-03-26T01:51:54;8.20;99.90
25250;DHT22;13201;51.148;13.738;2023-03-26T01:54:23;8.20;99.90
25250;DHT22;13201;51.148;13.738;2023-03-26T02:02:03;8.20;99.90
25250;DHT22;13201;51.148;13.738;2023-03-26T02:07:11;8.20;99.90
25250;DHT22;13201;51.148;13.738;2023-03-26T02:09:45;8.20;99.90
25250;DHT22;13201;51.148;13.738;2023-03-26T02:12:16;8.20;99.90
25250;DHT22;13201;51.148;13.738;2023-03-26T02:14:42;8.20;99.90
25250;DHT22;13201;51.148;13.738;2023-03-26T02:17:09;8.10;99.90
25250;DHT22;13201;51.148;13.738;2023-03-26T02:19:36;8.10;99.90
25250;DHT22;13201;51.148;13.738;2023-03-26T02:22:09;8.10;99.90
25250;DHT22;13201;51.148;13.738;2023-03-26T02:24:42;8.10;99.90
25250;DHT22;13201;51.148;13.738;2023-03-26T02:27:08;8.10;99.90
25250;DHT22;13201;51.148;13.738;2023-03-26T02:29:37;8.10;99.90
25250;DHT22;13201;51.148;13.738;2023-03-26T02:32:05;8.10;99.90
25250;DHT22;13201;51.148;13.738;2023-03-26T02:34:31;8.10;99.90
25250;DHT22;13201;51.148;13.738;2023-03-26T02:36:56;8.20;99.90
25250;DHT22;13201;51.148;13.738;2023-03-26T02:39:23;8.20;99.90
25250;DHT22;13201;51.148;13.738;2023-03-26T02:41:48;8.20;99.90
25250;DHT22;13201;51.148;13.738;2023-03-26T02:44:14;8.20;99.90
25250;DHT22;13201;51.148;13.738;2023-03-26T02:46:40;8.30;99.90
25250;DHT22;13201;51.148;13.738;2023-03-26T02:49:06;8.20;99.90
25250;DHT22;13201;51.148;13.738;2023-03-26T02:51:32;8.20;99.90
25250;DHT22;13201;51.148;13.738;2023-03-26T02:54:02;8.10;99.90
25250;DHT22;13201;51.148;13.738;2023-03-26T02:56:28;8.10;99.90
25250;DHT22;13201;51.148;13.738;2023-03-26T02:58:54;8.10;99.90
25250;DHT22;13201;51.148;13.738;2023-03-26T03:01:20;8.20;99.90
25250;DHT22;13201;51.148;13.738;2023-03-26T03:03:47;8.20;99.90
25250;DHT22;13201;51.148;13.738;2023-03-26T03:06:14;8.20;99.90
25250;DHT22;13201;51.148;13.738;2023-03-26T03:08:41;8.20;99.90
25250;DHT22;13201;51.148;13.738;2023-03-26T03:11:13;8.20;99.90
25250;DHT22;13201;51.148;13.738;2023-03-26T03:13:39;8.20;99.90
25250;DHT22;13201;51.148;13.738;2023-03-26T03:16:05;8.20;99.90
25250;DHT22;13201;51.148;13.738;2023-03-26T03:18:31;8.10;99.90
25250;DHT22;13201;51.148;13.738;2023-03-26T03:20:57;8.30;99.90
25250;DHT22;13201;51.148;13.738;2023-03-26T03:23:22;8.20;99.90
25250;DHT22;13201;51.148;13.738;2023-03-26T03:25:48;8.10;99.90
25250;DHT22;13201;51.148;13.738;2023-03-26T03:28:17;8.20;99.90
25250;DHT22;13201;51.148;13.738;2023-03-26T03:30:43;8.20;99.90
25250;DHT22;13201;51.148;13.738;2023-03-26T03:33:09;8.10;99.90
25250;DHT22;13201;51.148;13.738;2023-03-26T03:35:35;8.10;99.90
25250;DHT22;13201;51.148;13.738;2023-03-26T03:38:02;8.20;99.90
25250;DHT22;13201;51.148;13.738;2023-03-26T03:40:27;8.10;99.90
25250;DHT22;13201;51.148;13.738;2023-03-26T03:42:53;8.10;99.90
25250;DHT22;13201;51.148;13.738;2023-03-26T03:45:19;8.20;99.90
25250;DHT22;13201;51.148;13.738;2023-03-26T03:47:45;8.10;99.90
25250;DHT22;13201;51.148;13.738;2023-03-26T03:50:11;8.10;99.90
25250;DHT22;13201;51.148;13.738;2023-03-26T03:52:36;8.10;99.90
25250;DHT22;13201;51.148;13.738;2023-03-26T03:55:02;8.10;99.90
25250;DHT22;13201;51.148;13.738;2023-03-26T03:57:28;8.10;99.90
25250;DHT22;13201;51.148;13.738;2023-03-26T03:59:56;8.00;99.90
25250;DHT22;13201;51.148;13.738;2023-03-26T04:02:25;8.00;99.90
25250;DHT22;13201;51.148;13.738;2023-03-26T04:04:55;8.00;99.90
25250;DHT22;13201;51.148;13.738;2023-03-26T04:07:23;8.00;99.90
25250;DHT22;13201;51.148;13.738;2023-03-26T04:09:49;8.00;99.90
25250;DHT22;13201;51.148;13.738;2023-03-26T04:12:15;7.90;99.90
25250;DHT22;13201;51.148;13.738;2023-03-26T04:14:41;8.00;99.90
25250;DHT22;13201;51.148;13.738;2023-03-26T04:17:06;8.00;99.90
25250;DHT22;13201;51.148;13.738;2023-03-26T04:19:32;8.00;99.90
25250;DHT22;13201;51.148;13.738;2023-03-26T04:21:59;8.10;99.90
25250;DHT22;13201;51.148;13.738;2023-03-26T04:24:28;8.10;99.90
25250;DHT22;13201;51.148;13.738;2023-03-26T04:26:55;8.00;99.90
25250;DHT22;13201;51.148;13.738;2023-03-26T04:29:23;8.10;99.90
25250;DHT22;13201;51.148;13.738;2023-03-26T04:31:55;7.90;99.90
25250;DHT22;13201;51.148;13.738;2023-03-26T04:34:23;8.00;99.90
25250;DHT22;13201;51.148;13.738;2023-03-26T04:36:51;8.00;99.90
25250;DHT22;13201;51.148;13.738;2023-03-26T04:39:20;8.00;99.90
25250;DHT22;13201;51.148;13.738;2023-03-26T04:41:56;8.00;99.90
25250;DHT22;13201;51.148;13.738;2023-03-26T04:44:22;8.10;99.90
25250;DHT22;13201;51.148;13.738;2023-03-26T04:46:49;8.10;99.90
25250;DHT22;13201;51.148;13.738;2023-03-26T04:49:17;8.20;99.90
25250;DHT22;13201;51.148;13.738;2023-03-26T04:51:43;8.20;99.90
25250;DHT22;13201;51.148;13.738;2023-03-26T04:54:12;8.30;99.90
25250;DHT22;13201;51.148;13.738;2023-03-26T04:56:59;8.20;99.90
25250;DHT22;13201;51.148;13.738;2023-03-26T04:59:32;8.30;99.90
25250;DHT22;13201;51.148;13.738;2023-03-26T05:02:03;8.30;99.90
25250;DHT22;13201;51.148;13.738;2023-03-26T05:04:29;8.30;99.90
25250;DHT22;13201;51.148;13.738;2023-03-26T05:06:56;8.30;99.90
25250;DHT22;13201;51.148;13.738;2023-03-26T05:09:24;8.30;99.90
25250;DHT22;13201;51.148;13.738;2023-03-26T05:11:49;8.30;99.90
25250;DHT22;13201;51.148;13.738;2023-03-26T05:14:16;8.40;99.90
25250;DHT22;13201;51.148;13.738;2023-03-26T05:16:43;8.40;99.90
25250;DHT22;13201;51.148;13.738;2023-03-26T05:19:11;8.50;99.90
25250;DHT22;13201;51.148;13.738;2023-03-26T05:21:36;8.40;99.90
25250;DHT22;13201;51.148;13.738;2023-03-26T05:24:02;8.40;99.90
25250;DHT22;13201;51.148;13.738;2023-03-26T05:26:30;8.50;99.90
25250;DHT22;13201;51.148;13.738;2023-03-26T05:28:56;8.50;99.90
25250;DHT22;13201;51.148;13.738;2023-03-26T05:31:21;8.60;99.90
25250;DHT22;13201;51.148;13.738;2023-03-26T05:33:47;8.60;99.90
25250;DHT22;13201;51.148;13.738;2023-03-26T05:36:14;8.60;99.90
25250;DHT22;13201;51.148;13.738;2023-03-26T05:38:41;8.70;99.90
25250;DHT22;13201;51.148;13.738;2023-03-26T05:41:11;8.70;99.90
25250;DHT22;13201;51.148;13.738;2023-03-26T05:43:37;8.70;99.90
25250;DHT22;13201;51.148;13.738;2023-03-26T05:46:03;8.70;99.90
25250;DHT22;13201;51.148;13.738;2023-03-26T05:48:29;8.70;99.90
25250;DHT22;13201;51.148;13.738;2023-03-26T05:50:56;8.60;99.90
25250;DHT22;13201;51.148;13.738;2023-03-26T05:53:23;8.60;99.90
25250;DHT22;13201;51.148;13.738;2023-03-26T05:55:49;8.50;99.90
25250;DHT22;13201;51.148;13.738;2023-03-26T05:58:20;8.60;99.90
25250;DHT22;13201;51.148;13.738;2023-03-26T06:00:46;8.70;99.90
25250;DHT22;13201;51.148;13.738;2023-03-26T06:03:13;8.60;99.90
25250;DHT22;13201;51.148;13.738;2023-03-26T06:05:39;8.60;99.90
25250;DHT22;13201;51.148;13.738;2023-03-26T06:08:05;8.50;99.90
25250;DHT22;13201;51.148;13.738;2023-03-26T06:10:31;8.50;99.90
25250;DHT22;13201;51.148;13.738;2023-03-26T06:12:57;8.60;99.90
25250;DHT22;13201;51.148;13.738;2023-03-26T06:15:22;8.70;99.90
25250;DHT22;13201;51.148;13.738;2023-03-26T06:17:48;8.70;99.90
25250;DHT22;13201;51.148;13.738;2023-03-26T06:20:14;8.70;99.90
25250;DHT22;13201;51.148;13.738;2023-03-26T06:22:40;8.70;99.90
25250;DHT22;13201;51.148;13.738;2023-03-26T06:25:06;8.80;99.90
25250;DHT22;13201;51.148;13.738;2023-03-26T06:27:32;8.80;99.90
25250;DHT22;13201;51.148;13.738;2023-03-26T06:29:58;8.60;99.90
25250;DHT22;13201;51.148;13.738;2023-03-26T06:32:23;8.70;99.90
25250;DHT22;13201;51.148;13.738;2023-03-26T06:34:49;8.60;99.90
25250;DHT22;13201;51.148;13.738;2023-03-26T06:37:15;8.70;99.90
25250;DHT22;13201;51.148;13.738;2023-03-26T06:39:41;8.80;99.90
25250;DHT22;13201;51.148;13.738;2023-03-26T06:42:07;8.90;99.90
25250;DHT22;13201;51.148;13.738;2023-03-26T06:44:33;8.90;99.90
25250;DHT22;13201;51.148;13.738;2023-03-26T06:46:58;8.90;99.90
25250;DHT22;13201;51.148;13.738;2023-03-26T06:49:24;9.00;99.90
25250;DHT22;13201;51.148;13.738;2023-03-26T06:51:50;9.10;99.90
25250;DHT22;13201;51.148;13.738;2023-03-26T06:54:16;9.20;99.90
25250;DHT22;13201;51.148;13.738;2023-03-26T06:56:41;9.30;99.90
25250;DHT22;13201;51.148;13.738;2023-03-26T06:59:07;9.30;99.90
25250;DHT22;13201;51.148;13.738;2023-03-26T07:01:33;9.30;99.90
25250;DHT22;13201;51.148;13.738;2023-03-26T07:03:58;9.30;99.90
25250;DHT22;13201;51.148;13.738;2023-03-26T07:06:24;9.50;99.90
25250;DHT22;13201;51.148;13.738;2023-03-26T07:08:50;9.60;99.90
25250;DHT22;13201;51.148;13.738;2023-03-26T07:11:16;9.70;99.90
25250;DHT22;13201;51.148;13.738;2023-03-26T07:13:44;9.80;99.90
25250;DHT22;13201;51.148;13.738;2023-03-26T07:16:11;9.70;99.90
25250;DHT22;13201;51.148;13.738;2023-03-26T07:18:38;9.80;99.90
25250;DHT22;13201;51.148;13.738;2023-03-26T07:21:04;9.70;99.90
25250;DHT22;13201;51.148;13.738;2023-03-26T07:23:30;9.80;99.90
25250;DHT22;13201;51.148;13.738;2023-03-26T07:25:56;9.90;99.90
25250;DHT22;13201;51.148;13.738;2023-03-26T07:28:54;9.90;99.90
25250;DHT22;13201;51.148;13.738;2023-03-26T07:47:26;10.00;99.90
25250;DHT22;13201;51.148;13.738;2023-03-26T07:49:54;10.20;99.90
25250;DHT22;13201;51.148;13.738;2023-03-26T07:52:20;10.20;99.90
25250;DHT22;13201;51.148;13.738;2023-03-26T07:54:46;10.10;99.90
25250;DHT22;13201;51.148;13.738;2023-03-26T08:00:22;10.00;99.90
25250;DHT22;13201;51.148;13.738;2023-03-26T08:05:42;10.00;99.90
25250;DHT22;13201;51.148;13.738;2023-03-26T08:08:18;10.10;99.90
25250;DHT22;13201;51.148;13.738;2023-03-26T08:10:57;10.00;99.90
25250;DHT22;13201;51.148;13.738;2023-03-26T08:18:33;10.10;99.90
25250;DHT22;13201;51.148;13.738;2023-03-26T08:21:34;10.00;99.90
25250;DHT22;13201;51.148;13.738;2023-03-26T08:24:24;10.00;99.90
25250;DHT22;13201;51.148;13.738;2023-03-26T08:27:03;10.00;99.90
25250;DHT22;13201;51.148;13.738;2023-03-26T08:29:59;9.90;99.90
25250;DHT22;13201;51.148;13.738;2023-03-26T08:32:27;10.10;99.90
25250;DHT22;13201;51.148;13.738;2023-03-26T08:34:53;10.10;99.90
25250;DHT22;13201;51.148;13.738;2023-03-26T08:37:18;10.00;99.90
25250;DHT22;13201;51.148;13.738;2023-03-26T08:39:44;10.00;99.90
25250;DHT22;13201;51.148;13.738;2023-03-26T08:48:25;10.00;99.90
25250;DHT22;13201;51.148;13.738;2023-03-26T08:51:52;10.20;99.90
25250;DHT22;13201;51.148;13.738;2023-03-26T08:54:29;10.20;99.90
25250;DHT22;13201;51.148;13.738;2023-03-26T09:02:25;10.50;99.90
25250;DHT22;13201;51.148;13.738;2023-03-26T09:29:47;10.40;99.90
25250;DHT22;13201;51.148;13.738;2023-03-26T09:35:04;10.50;99.90
25250;DHT22;13201;51.148;13.738;2023-03-26T09:40:14;10.60;99.90
25250;DHT22;13201;51.148;13.738;2023-03-26T09:42:44;10.60;99.90
25250;DHT22;13201;51.148;13.738;2023-03-26T09:45:30;10.70;99.90
25250;DHT22;13201;51.148;13.738;2023-03-26T09:51:06;11.00;99.90
25250;DHT22;13201;51.148;13.738;2023-03-26T10:02:47;11.40;99.90
25250;DHT22;13201;51.148;13.738;2023-03-26T10:11:09;12.00;99.90
25250;DHT22;13201;51.148;13.738;2023-03-26T10:16:40;11.80;99.90
25250;DHT22;13201;51.148;13.738;2023-03-26T10:19:15;11.70;99.90
25250;DHT22;13201;51.148;13.738;2023-03-26T10:25:20;12.00;99.90
25250;DHT22;13201;51.148;13.738;2023-03-26T10:35:43;11.80;99.90
25250;DHT22;13201;51.148;13.738;2023-03-26T10:41:11;12.40;99.90
25250;DHT22;13201;51.148;13.738;2023-03-26T10:47:13;12.70;99.90
25250;DHT22;13201;51.148;13.738;2023-03-26T10:49:49;13.00;99.90
25250;DHT22;13201;51.148;13.738;2023-03-26T10:52:24;12.90;99.90
25250;DHT22;13201;51.148;13.738;2023-03-26T10:55:08;12.90;99.90
25250;DHT22;13201;51.148;13.738;2023-03-26T10:57:52;13.10;99.90
25250;DHT22;13201;51.148;13.738;2023-03-26T11:00:23;12.80;99.90
25250;DHT22;13201;51.148;13.738;2023-03-26T11:08:17;12.80;99.90
25250;DHT22;13201;51.148;13.738;2023-03-26T11:13:38;12.70;99.90
25250;DHT22;13201;51.148;13.738;2023-03-26T11:19:23;12.70;99.90
25250;DHT22;13201;51.148;13.738;2023-03-26T11:27:27;13.20;99.90
25250;DHT22;13201;51.148;13.738;2023-03-26T11:32:26;13.20;99.90
25250;DHT22;13201;51.148;13.738;2023-03-26T11:35:07;13.20;99.90
25250;DHT22;13201;51.148;13.738;2023-03-26T11:37:38;13.00;99.90
25250;DHT22;13201;51.148;13.738;2023-03-26T11:40:33;12.90;99.90
25250;DHT22;13201;51.148;13.738;2023-03-26T11:43:03;12.90;99.90
25250;DHT22;13201;51.148;13.738;2023-03-26T11:45:33;13.00;99.90
25250;DHT22;13201;51.148;13.738;2023-03-26T11:48:13;12.80;99.90
25250;DHT22;13201;51.148;13.738;2023-03-26T11:50:44;12.80;99.90
25250;DHT22;13201;51.148;13.738;2023-03-26T11:53:23;12.90;99.90
25250;DHT22;13201;51.148;13.738;2023-03-26T11:56:01;13.10;99.90
25250;DHT22;13201;51.148;13.738;2023-03-26T12:01:11;13.40;99.90
25250;DHT22;13201;51.148;13.738;2023-03-26T12:03:37;13.60;99.90
25250;DHT22;13201;51.148;13.738;2023-03-26T12:06:05;13.90;99.90
25250;DHT22;13201;51.148;13.738;2023-03-26T12:08:38;13.80;99.90
25250;DHT22;13201;51.148;13.738;2023-03-26T12:11:07;13.70;99.90
25250;DHT22;13201;51.148;13.738;2023-03-26T12:13:42;13.70;99.90
25250;DHT22;13201;51.148;13.738;2023-03-26T12:16:14;13.70;99.90
25250;DHT22;13201;51.148;13.738;2023-03-26T12:18:42;14.40;99.90
25250;DHT22;13201;51.148;13.738;2023-03-26T12:21:17;14.60;99.90
25250;DHT22;13201;51.148;13.738;2023-03-26T12:23:59;14.60;99.90
25250;DHT22;13201;51.148;13.738;2023-03-26T12:26:42;14.60;99.90
25250;DHT22;13201;51.148;13.738;2023-03-26T12:29:14;15.10;99.90
25250;DHT22;13201;51.148;13.738;2023-03-26T12:32:05;15.10;99.90
25250;DHT22;13201;51.148;13.738;2023-03-26T12:34:34;14.60;99.90
25250;DHT22;13201;51.148;13.738;2023-03-26T12:37:03;14.20;99.90
25250;DHT22;13201;51.148;13.738;2023-03-26T12:39:38;13.90;99.90
25250;DHT22;13201;51.148;13.738;2023-03-26T12:42:05;13.50;99.90
25250;DHT22;13201;51.148;13.738;2023-03-26T12:44:50;13.40;99.90
25250;DHT22;13201;51.148;13.738;2023-03-26T12:47:25;13.20;99.90
25250;DHT22;13201;51.148;13.738;2023-03-26T12:49:52;13.20;99.90
25250;DHT22;13201;51.148;13.738;2023-03-26T12:58:09;13.60;99.90
25250;DHT22;13201;51.148;13.738;2023-03-26T13:00:44;13.60;99.90
25250;DHT22;13201;51.148;13.738;2023-03-26T13:03:42;13.50;99.90
25250;DHT22;13201;51.148;13.738;2023-03-26T13:12:11;13.90;99.90
25250;DHT22;13201;51.148;13.738;2023-03-26T13:17:50;13.80;99.90
25250;DHT22;13201;51.148;13.738;2023-03-26T13:20:30;14.10;99.90
25250;DHT22;13201;51.148;13.738;2023-03-26T13:23:18;14.00;99.90
25250;DHT22;13201;51.148;13.738;2023-03-26T13:25:55;13.70;99.90
25250;DHT22;13201;51.148;13.738;2023-03-26T13:36:17;13.70;99.90
25250;DHT22;13201;51.148;13.738;2023-03-26T13:39:18;13.80;99.90
25250;DHT22;13201;51.148;13.738;2023-03-26T13:47:25;13.60;99.90
25250;DHT22;13201;51.148;13.738;2023-03-26T13:53:00;13.80;99.90
25250;DHT22;13201;51.148;13.738;2023-03-26T13:58:01;13.90;99.90
25250;DHT22;13201;51.148;13.738;2023-03-26T14:03:14;14.00;99.90
25250;DHT22;13201;51.148;13.738;2023-03-26T14:05:47;14.00;99.90
25250;DHT22;13201;51.148;13.738;2023-03-26T14:08:20;14.00;99.90
25250;DHT22;13201;51.148;13.738;2023-03-26T14:11:00;13.80;99.90
25250;DHT22;13201;51.148;13.738;2023-03-26T14:13:43;13.80;99.90
25250;DHT22;13201;51.148;13.738;2023-03-26T14:16:34;13.90;99.90
25250;DHT22;13201;51.148;13.738;2023-03-26T14:22:49;13.80;99.90
25250;DHT22;13201;51.148;13.738;2023-03-26T14:31:03;13.40;99.90
25250;DHT22;13201;51.148;13.738;2023-03-26T14:33:45;13.60;99.90
25250;DHT22;13201;51.148;13.738;2023-03-26T14:36:17;13.60;99.90
25250;DHT22;13201;51.148;13.738;2023-03-26T14:52:56;10.80;99.90
25250;DHT22;13201;51.148;13.738;2023-03-26T15:01:28;10.80;99.90
25250;DHT22;13201;51.148;13.738;2023-03-26T15:04:29;10.80;99.90
25250;DHT22;13201;51.148;13.738;2023-03-26T15:15:32;10.30;99.90
25250;DHT22;13201;51.148;13.738;2023-03-26T15:26:51;10.20;99.90
25250;DHT22;13201;51.148;13.738;2023-03-26T15:43:11;10.20;99.90
25250;DHT22;13201;51.148;13.738;2023-03-26T15:45:51;10.20;99.90
25250;DHT22;13201;51.148;13.738;2023-03-26T15:50:52;9.90;99.90
25250;DHT22;13201;51.148;13.738;2023-03-26T15:53:33;9.90;99.90
25250;DHT22;13201;51.148;13.738;2023-03-26T16:02:07;10.00;99.90
25250;DHT22;13201;51.148;13.738;2023-03-26T16:04:44;10.00;99.90
25250;DHT22;13201;51.148;13.738;2023-03-26T16:07:35;9.90;99.90
25250;DHT22;13201;51.148;13.738;2023-03-26T16:15:40;9.90;99.90
25250;DHT22;13201;51.148;13.738;2023-03-26T16:21:03;9.80;99.90
25250;DHT22;13201;51.148;13.738;2023-03-26T16:31:25;10.00;99.90
25250;DHT22;13201;51.148;13.738;2023-03-26T16:34:16;10.00;99.90
25250;DHT22;13201;51.148;13.738;2023-03-26T16:36:47;10.00;99.90
25250;DHT22;13201;51.148;13.738;2023-03-26T16:39:36;10.00;99.90
25250;DHT22;13201;51.148;13.738;2023-03-26T16:47:41;9.90;99.90
25250;DHT22;13201;51.148;13.738;2023-03-26T16:50:23;9.80;99.90
25250;DHT22;13201;51.148;13.738;2023-03-26T16:53:11;9.80;99.90
25250;DHT22;13201;51.148;13.738;2023-03-26T16:55:52;9.80;99.90
25250;DHT22;13201;51.148;13.738;2023-03-26T17:21:16;9.10;99.90
25250;DHT22;13201;51.148;13.738;2023-03-26T17:26:55;9.20;99.90
25250;DHT22;13201;51.148;13.738;2023-03-26T17:30:00;9.20;99.90
25250;DHT22;13201;51.148;13.738;2023-03-26T17:32:51;9.40;99.90
25250;DHT22;13201;51.148;13.738;2023-03-26T17:35:44;9.40;99.90
25250;DHT22;13201;51.148;13.738;2023-03-26T17:40:56;9.60;99.90
25250;DHT22;13201;51.148;13.738;2023-03-26T17:43:36;9.80;99.90
25250;DHT22;13201;51.148;13.738;2023-03-26T17:51:49;9.60;99.90
25250;DHT22;13201;51.148;13.738;2023-03-26T17:56:53;9.80;99.90
25250;DHT22;13201;51.148;13.738;2023-03-26T17:59:21;9.90;99.90
25250;DHT22;13201;51.148;13.738;2023-03-26T18:01:59;9.80;99.90
25250;DHT22;13201;51.148;13.738;2023-03-26T18:04:39;9.40;99.90
25250;DHT22;13201;51.148;13.738;2023-03-26T18:17:46;9.00;99.90
25250;DHT22;13201;51.148;13.738;2023-03-26T18:20:24;9.00;99.90
25250;DHT22;13201;51.148;13.738;2023-03-26T18:22:51;8.80;99.90
25250;DHT22;13201;51.148;13.738;2023-03-26T18:25:30;8.90;99.90
25250;DHT22;13201;51.148;13.738;2023-03-26T18:27:58;8.90;99.90
25250;DHT22;13201;51.148;13.738;2023-03-26T18:30:27;8.90;99.90
25250;DHT22;13201;51.148;13.738;2023-03-26T18:32:59;8.90;99.90
25250;DHT22;13201;51.148;13.738;2023-03-26T18:35:34;8.90;99.90
25250;DHT22;13201;51.148;13.738;2023-03-26T18:38:01;8.80;99.90
25250;DHT22;13201;51.148;13.738;2023-03-26T18:40:40;8.70;99.90
25250;DHT22;13201;51.148;13.738;2023-03-26T18:43:14;8.60;99.90
25250;DHT22;13201;51.148;13.738;2023-03-26T18:45:40;8.50;99.90
25250;DHT22;13201;51.148;13.738;2023-03-26T18:48:16;8.60;99.90
25250;DHT22;13201;51.148;13.738;2023-03-26T18:50:44;8.80;99.90
25250;DHT22;13201;51.148;13.738;2023-03-26T18:53:17;8.70;99.90
25250;DHT22;13201;51.148;13.738;2023-03-26T18:55:46;8.70;99.90
25250;DHT22;13201;51.148;13.738;2023-03-26T18:58:31;9.00;99.90
25250;DHT22;13201;51.148;13.738;2023-03-26T19:01:07;9.10;99.90
25250;DHT22;13201;51.148;13.738;2023-03-26T19:03:36;9.30;99.90
25250;DHT22;13201;51.148;13.738;2023-03-26T19:06:06;9.20;99.90
25250;DHT22;13201;51.148;13.738;2023-03-26T19:08:35;9.40;99.90
25250;DHT22;13201;51.148;13.738;2023-03-26T19:11:05;9.40;99.90
25250;DHT22;13201;51.148;13.738;2023-03-26T19:13:33;9.40;99.90
25250;DHT22;13201;51.148;13.738;2023-03-26T19:16:28;9.40;99.90
25250;DHT22;13201;51.148;13.738;2023-03-26T19:19:01;9.60;99.90
25250;DHT22;13201;51.148;13.738;2023-03-26T19:21:28;9.60;99.90
25250;DHT22;13201;51.148;13.738;2023-03-26T19:23:54;9.80;99.90
25250;DHT22;13201;51.148;13.738;2023-03-26T19:26:20;9.80;99.90
25250;DHT22;13201;51.148;13.738;2023-03-26T19:28:48;9.80;99.90
25250;DHT22;13201;51.148;13.738;2023-03-26T19:31:37;9.70;99.90
25250;DHT22;13201;51.148;13.738;2023-03-26T19:34:21;9.60;99.90
25250;DHT22;13201;51.148;13.738;2023-03-26T19:36:51;9.60;99.90
25250;DHT22;13201;51.148;13.738;2023-03-26T19:39:23;9.50;99.90
25250;DHT22;13201;51.148;13.738;2023-03-26T19:41:50;9.60;99.90
25250;DHT22;13201;51.148;13.738;2023-03-26T19:44:36;9.60;99.90
25250;DHT22;13201;51.148;13.738;2023-03-26T19:47:30;9.70;99.90
25250;DHT22;13201;51.148;13.738;2023-03-26T19:53:50;9.40;99.90
25250;DHT22;13201;51.148;13.738;2023-03-26T19:56:11;9.60;99.90
25250;DHT22;13201;51.148;13.738;2023-03-26T19:58:38;9.40;99.90
25250;DHT22;13201;51.148;13.738;2023-03-26T20:01:05;9.50;99.90
25250;DHT22;13201;51.148;13.738;2023-03-26T20:03:41;9.50;99.90
25250;DHT22;13201;51.148;13.738;2023-03-26T20:06:17;9.50;99.90
25250;DHT22;13201;51.148;13.738;2023-03-26T20:08:43;9.40;99.90
25250;DHT22;13201;51.148;13.738;2023-03-26T20:11:18;9.50;99.90
25250;DHT22;13201;51.148;13.738;2023-03-26T20:13:45;9.50;99.90
25250;DHT22;13201;51.148;13.738;2023-03-26T20:18:42;9.50;99.90
25250;DHT22;13201;51.148;13.738;2023-03-26T20:21:12;9.40;99.90
25250;DHT22;13201;51.148;13.738;2023-03-26T20:23:41;9.50;99.90
25250;DHT22;13201;51.148;13.738;2023-03-26T20:26:12;9.60;99.90
25250;DHT22;13201;51.148;13.738;2023-03-26T20:28:39;9.60;99.90
25250;DHT22;13201;51.148;13.738;2023-03-26T20:31:05;9.60;99.90
25250;DHT22;13201;51.148;13.738;2023-03-26T20:33:32;9.60;99.90
25250;DHT22;13201;51.148;13.738;2023-03-26T20:35:59;9.60;99.90
25250;DHT22;13201;51.148;13.738;2023-03-26T20:38:24;9.50;99.90
25250;DHT22;13201;51.148;13.738;2023-03-26T20:40:52;9.50;99.90
25250;DHT22;13201;51.148;13.738;2023-03-26T20:43:18;9.20;99.90
25250;DHT22;13201;51.148;13.738;2023-03-26T20:45:46;9.10;99.90
25250;DHT22;13201;51.148;13.738;2023-03-26T20:48:12;9.10;99.90
25250;DHT22;13201;51.148;13.738;2023-03-26T20:50:40;9.00;99.90
25250;DHT22;13201;51.148;13.738;2023-03-26T20:53:14;9.10;99.90
25250;DHT22;13201;51.148;13.738;2023-03-26T20:55:42;9.20;99.90
25250;DHT22;13201;51.148;13.738;2023-03-26T20:58:12;9.20;99.90
25250;DHT22;13201;51.148;13.738;2023-03-26T21:00:38;9.10;99.90
25250;DHT22;13201;51.148;13.738;2023-03-26T21:03:04;9.20;99.90
25250;DHT22;13201;51.148;13.738;2023-03-26T21:05:29;9.10;99.90
25250;DHT22;13201;51.148;13.738;2023-03-26T21:07:57;8.90;99.90
25250;DHT22;13201;51.148;13.738;2023-03-26T21:10:27;9.10;99.90
25250;DHT22;13201;51.148;13.738;2023-03-26T21:15:51;9.20;99.90
25250;DHT22;13201;51.148;13.738;2023-03-26T21:18:18;9.20;99.90
25250;DHT22;13201;51.148;13.738;2023-03-26T21:20:52;9.10;99.90
25250;DHT22;13201;51.148;13.738;2023-03-26T21:23:27;9.20;99.90
25250;DHT22;13201;51.148;13.738;2023-03-26T21:31:05;9.30;99.90
25250;DHT22;13201;51.148;13.738;2023-03-26T21:33:32;9.20;99.90
25250;DHT22;13201;51.148;13.738;2023-03-26T21:35:59;9.20;99.90
25250;DHT22;13201;51.148;13.738;2023-03-26T21:38:25;9.20;99.90
25250;DHT22;13201;51.148;13.738;2023-03-26T21:40:53;9.00;99.90
25250;DHT22;13201;51.148;13.738;2023-03-26T21:43:20;8.80;99.90
25250;DHT22;13201;51.148;13.738;2023-03-26T21:45:47;8.90;99.90
25250;DHT22;13201;51.148;13.738;2023-03-26T21:48:14;9.00;99.90
25250;DHT22;13201;51.148;13.738;2023-03-26T21:50:40;9.00;99.90